KMSP

Minneapolis-St Paul International / Wold-Chamberlain Airport

Minneapolis, Minnesota, USA
METAR KMSP 220953Z 15004KT 10SM OVC055 15/13 A3001 RMK AO2 SLP162 T01500128 $
Observed Flight Rules
May-22 @ 09:53 UTC (23 minutes ago) Visual Flight Rules
Wind Visibility Clouds
150° at 4 knots 10 miles
  • Overcast at 5,500' AGL
Temperatures Readings
Current 15°C / 59°F
Dewpoint 13°C / 55°F
Humidity 88%
Altimeter 30.01" Hg
Pressure 1016.2 hPa
Elevation 265
METAR KMSP 220953Z 15004KT 10SM OVC055 15/13 A3001 RMK AO2 SLP162 T01500128 $
Observed Flight Rules
May-22 @ 09:53 UTC
(23 minutes ago)
VFR
Wind Visibility
150° at 4 knots 10 miles
Clouds
  • Overcast at 5,500' AGL
Temperature Dewpoint
15°C / 59°F 13°C / 55°F
Humidity Altimeter Pressure
88% 30.01" Hg 1016.2 hPa